Los Angeles, California
Traffic Map
Current Weather Conditions
Los Angeles, California
Clear
Clear
62°
Feels Like: 62°
Wind Chill: 62° Ceiling: Unl
Heat Index: 62° Visibility: 10mi
Dew Point: 26° Wind: 3mph
Humidity: 25% Direction: ° ()
Pressure: 30.16in Gusts: 0mph
Raw Report DataKCQT 241947Z AUTO VRB03KT 10SM CLR 17/M03 A3016 RMK AO2 SLP213 T01671033
Traffic Incident Summary
Active as of:
Severity:
Category:
InformationThere was an issue retrieving the traffic information for this location. Please try a different location or try again shortly.
Advertisements
Track Severe Weather on mobile